Time;durP1;ratioP1;P1;durP2;ratioP2;P2;SDS_P1;SDS_P2;PMS_P1;PMS_P2;Temp;Humidity;BMP_temperature;BMP_pressure;BME280_temperature;BME280_humidity;BME280_pressure;Samples;Min_cycle;Max_cycle;Signal;HPM_P1;HPM_P2
2022/03/27 00:01:02;;;;;;;21.60;16.73;;;11.40;99.90;;;;;;4998241;28;20553;-79
2022/03/27 00:03:35;;;;;;;24.73;16.87;;;11.50;99.90;;;;;;4997050;28;20679;-79
2022/03/27 00:06:16;;;;;;;19.97;17.00;;;11.40;99.90;;;;;;4979598;28;20211;-79
2022/03/27 00:08:47;;;;;;;23.57;16.90;;;11.30;99.90;;;;;;4999910;28;20656;-79
2022/03/27 00:11:28;;;;;;;21.63;17.23;;;11.20;99.90;;;;;;4998059;28;20216;-79
2022/03/27 00:13:56;;;;;;;20.30;16.43;;;11.10;99.90;;;;;;4998127;28;20655;-80
2022/03/27 00:16:24;;;;;;;22.87;16.30;;;11.10;99.90;;;;;;4999631;28;20192;-80
2022/03/27 00:18:56;;;;;;;21.33;15.27;;;11.20;99.90;;;;;;4980757;28;20220;-81
2022/03/27 00:21:26;;;;;;;20.60;15.43;;;11.30;99.90;;;;;;4997716;28;20200;-80
2022/03/27 00:23:55;;;;;;;20.43;15.27;;;11.30;99.90;;;;;;4998455;28;20686;-80
2022/03/27 00:26:29;;;;;;;17.03;14.70;;;11.20;99.90;;;;;;4998301;28;20197;-80
2022/03/27 00:29:04;;;;;;;19.40;15.03;;;11.20;99.90;;;;;;4998319;28;20204;-81
2022/03/27 00:31:35;;;;;;;20.60;14.47;;;11.10;99.90;;;;;;4997767;28;20220;-80
2022/03/27 00:34:04;;;;;;;21.00;15.10;;;11.00;99.90;;;;;;4998901;28;20278;-81
2022/03/27 00:36:37;;;;;;;20.30;14.90;;;10.90;99.90;;;;;;4998015;28;20640;-80
2022/03/27 00:39:08;;;;;;;17.27;14.37;;;10.90;99.90;;;;;;4999017;28;20239;-80
2022/03/27 00:41:43;;;;;;;19.10;14.37;;;10.90;99.90;;;;;;4997727;28;20211;-79
2022/03/27 00:44:12;;;;;;;16.97;14.13;;;10.90;99.90;;;;;;4996818;28;20211;-79
2022/03/27 00:46:50;;;;;;;19.75;16.50;;;11.00;99.90;;;;;;4996762;28;20437;-79
2022/03/27 00:49:33;;;;;;;18.63;14.47;;;11.00;99.90;;;;;;4998242;28;20311;-81
2022/03/27 00:52:02;;;;;;;18.20;13.70;;;11.10;99.90;;;;;;5000801;28;20212;-80
2022/03/27 00:54:38;;;;;;;16.53;13.60;;;11.10;99.90;;;;;;4998933;28;20583;-81
2022/03/27 00:57:08;;;;;;;16.97;14.13;;;10.90;99.90;;;;;;4998324;28;20204;-79
2022/03/27 00:59:35;;;;;;;19.83;13.47;;;10.80;99.90;;;;;;4997180;28;20198;-79
2022/03/27 01:02:10;;;;;;;22.13;14.40;;;10.90;99.90;;;;;;4996968;28;20291;-80
2022/03/27 01:04:46;;;;;;;18.87;13.97;;;10.80;99.90;;;;;;4997879;28;20204;-79
2022/03/27 01:07:19;;;;;;;19.80;14.10;;;10.70;99.90;;;;;;4979462;28;20656;-80
2022/03/27 01:09:50;;;;;;;20.90;13.87;;;10.70;99.90;;;;;;4980028;28;20714;-79
2022/03/27 01:12:24;;;;;;;18.23;14.37;;;10.70;99.90;;;;;;4996734;28;20259;-79
2022/03/27 01:14:54;;;;;;;21.77;13.63;;;10.70;99.90;;;;;;4997368;28;20214;-78
2022/03/27 01:17:25;;;;;;;17.93;13.47;;;10.70;99.90;;;;;;4996716;28;20227;-80
2022/03/27 01:19:55;;;;;;;15.67;13.03;;;10.50;99.90;;;;;;4997093;28;20201;-80
2022/03/27 01:22:32;;;;;;;18.10;14.47;;;10.50;99.90;;;;;;4996776;28;20205;-79
2022/03/27 01:25:04;;;;;;;18.10;12.90;;;10.40;99.90;;;;;;4997881;28;20222;-79
2022/03/27 01:27:30;;;;;;;19.13;12.77;;;10.30;99.90;;;;;;4997911;28;20223;-80
2022/03/27 01:30:00;;;;;;;18.30;13.93;;;10.10;99.90;;;;;;4999731;28;20778;-80
2022/03/27 01:32:34;;;;;;;19.30;14.07;;;10.20;99.90;;;;;;5010058;28;20236;-81
2022/03/27 01:35:05;;;;;;;23.60;15.23;;;10.20;99.90;;;;;;5012766;28;20196;-80
2022/03/27 01:37:40;;;;;;;20.40;15.53;;;10.30;99.90;;;;;;5013308;28;20232;-81
2022/03/27 01:40:09;;;;;;;20.73;14.23;;;10.20;99.90;;;;;;5014487;28;20204;-81
2022/03/27 01:42:42;;;;;;;22.63;14.53;;;10.10;99.90;;;;;;5011963;28;20208;-81
2022/03/27 01:45:19;;;;;;;19.90;15.68;;;10.20;99.90;;;;;;4998164;28;20450;-82
2022/03/27 01:47:47;;;;;;;20.90;14.27;;;10.00;99.90;;;;;;5013954;28;20232;-80
2022/03/27 01:50:17;;;;;;;18.97;13.80;;;10.10;99.90;;;;;;5013394;28;20209;-81
2022/03/27 01:53:02;;;;;;;19.77;14.07;;;10.00;99.90;;;;;;5011653;28;20263;-80
2022/03/27 01:55:32;;;;;;;20.23;13.67;;;10.00;99.90;;;;;;5013184;28;20293;-81
2022/03/27 01:57:59;;;;;;;22.93;14.47;;;10.00;99.90;;;;;;5015658;28;20213;-81
2022/03/27 02:00:29;;;;;;;22.73;13.50;;;10.00;99.90;;;;;;5015837;28;20571;-80
2022/03/27 02:03:03;;;;;;;18.00;13.20;;;10.10;99.90;;;;;;5016427;28;20189;-81
2022/03/27 02:05:32;;;;;;;19.67;15.83;;;10.10;99.90;;;;;;5009509;28;20447;-80
2022/03/27 02:08:02;;;;;;;21.13;13.67;;;10.20;99.90;;;;;;4987615;28;20271;-79
2022/03/27 02:10:31;;;;;;;18.00;13.13;;;10.10;99.90;;;;;;5004247;28;20203;-80
2022/03/27 02:13:04;;;;;;;21.93;14.67;;;10.10;99.90;;;;;;5004102;28;20683;-80
2022/03/27 02:15:31;;;;;;;19.50;13.40;;;10.00;99.90;;;;;;5004781;28;20235;-79
2022/03/27 02:18:02;;;;;;;19.57;13.60;;;10.00;99.90;;;;;;5003366;28;20189;-79
2022/03/27 02:20:29;;;;;;;16.00;13.20;;;9.90;99.90;;;;;;5003680;28;20223;-78
2022/03/27 02:22:57;;;;;;;18.73;14.03;;;9.80;99.90;;;;;;5003052;28;20678;-79
2022/03/27 02:25:30;;;;;;;20.88;15.50;;;9.80;99.90;;;;;;5003935;28;21014;-79
2022/03/27 02:28:03;;;;;;;19.60;13.97;;;9.80;99.90;;;;;;5013333;28;20217;-79
2022/03/27 02:30:30;;;;;;;21.80;14.27;;;9.80;99.90;;;;;;5022712;28;20207;-80
2022/03/27 02:33:03;;;;;;;20.87;14.47;;;9.80;99.90;;;;;;5021619;28;20702;-80
2022/03/27 02:35:36;;;;;;;16.67;12.93;;;9.70;99.90;;;;;;5022639;28;20216;-80
2022/03/27 02:38:05;;;;;;;15.13;12.30;;;9.60;99.90;;;;;;5023162;28;20198;-79
2022/03/27 02:40:39;;;;;;;18.37;12.03;;;9.50;99.90;;;;;;5024618;28;20208;-79
2022/03/27 02:43:10;;;;;;;19.30;12.97;;;9.50;99.90;;;;;;5024718;28;20207;-79
2022/03/27 02:45:41;;;;;;;20.83;14.57;;;9.40;99.90;;;;;;5025968;28;20437;-80
2022/03/27 02:48:10;;;;;;;20.17;13.57;;;9.40;99.90;;;;;;5024743;28;20251;-79
2022/03/27 02:50:45;;;;;;;25.07;14.37;;;9.50;99.90;;;;;;5024977;28;20203;-79
2022/03/27 02:53:12;;;;;;;20.07;13.63;;;9.50;99.90;;;;;;5024928;28;20215;-79
2022/03/27 02:55:46;;;;;;;22.40;13.23;;;9.50;99.90;;;;;;5024707;28;20742;-78
2022/03/27 02:58:17;;;;;;;23.07;14.70;;;9.60;99.90;;;;;;5024811;28;20221;-80
2022/03/27 03:00:50;;;;;;;20.60;12.87;;;9.60;99.90;;;;;;5023355;28;20207;-79
2022/03/27 03:03:22;;;;;;;18.73;13.70;;;9.60;99.90;;;;;;5023648;28;20196;-79
2022/03/27 03:05:51;;;;;;;19.77;12.60;;;9.60;99.90;;;;;;5005945;28;20211;-80
2022/03/27 03:08:21;;;;;;;19.80;13.40;;;9.70;99.90;;;;;;5030474;28;20200;-80
2022/03/27 03:11:13;;;;;;;20.73;14.30;;;9.60;99.90;;;;;;5024038;28;20188;-80
2022/03/27 03:13:40;;;;;;;20.07;13.20;;;9.60;99.90;;;;;;5022345;28;20643;-81
2022/03/27 03:16:15;;;;;;;18.30;13.07;;;9.60;99.90;;;;;;5024008;28;20200;-80
2022/03/27 03:18:43;;;;;;;19.97;13.60;;;9.40;99.90;;;;;;5023158;28;20211;-79
2022/03/27 03:21:11;;;;;;;18.43;12.17;;;9.50;99.90;;;;;;5023476;28;20200;-79
2022/03/27 03:23:39;;;;;;;18.70;13.07;;;9.40;99.90;;;;;;5024568;28;20299;-79
2022/03/27 03:26:14;;;;;;;20.53;14.20;;;9.30;99.90;;;;;;5025655;28;20279;-78
2022/03/27 03:28:53;;;;;;;21.37;15.40;;;9.50;99.90;;;;;;5027057;28;20200;-80
2022/03/27 03:31:28;;;;;;;20.70;13.83;;;9.40;99.90;;;;;;5033011;28;20210;-81
2022/03/27 03:33:58;;;;;;;19.33;13.67;;;9.40;99.90;;;;;;5033450;28;20225;-80
2022/03/27 03:36:27;;;;;;;19.53;13.17;;;9.50;99.90;;;;;;5033255;28;20322;-80
2022/03/27 03:38:58;;;;;;;18.13;12.87;;;9.40;99.90;;;;;;5033797;28;20192;-80
2022/03/27 03:41:28;;;;;;;18.30;13.20;;;9.30;99.90;;;;;;5033991;28;20279;-81
2022/03/27 03:44:09;;;;;;;19.70;13.10;;;9.30;99.90;;;;;;5034216;28;20208;-80
2022/03/27 03:46:39;;;;;;;14.97;12.53;;;9.10;99.90;;;;;;5016708;28;20188;-81
2022/03/27 03:49:07;;;;;;;21.80;16.02;;;9.20;99.90;;;;;;5036543;28;20428;-81
2022/03/27 03:51:38;;;;;;;19.40;14.43;;;9.20;99.90;;;;;;5037138;28;20196;-82
2022/03/27 03:54:07;;;;;;;18.33;14.33;;;9.30;99.90;;;;;;5034358;28;20232;-81
2022/03/27 03:56:45;;;;;;;20.07;13.87;;;9.40;99.90;;;;;;5031200;28;20216;-82
2022/03/27 03:59:16;;;;;;;21.63;14.30;;;9.50;99.90;;;;;;5036710;28;20215;-81
2022/03/27 04:01:44;;;;;;;23.40;14.53;;;9.20;99.90;;;;;;5034677;28;20207;-81
2022/03/27 04:04:17;;;;;;;20.50;15.00;;;9.10;99.90;;;;;;5016074;28;20239;-80
2022/03/27 04:06:57;;;;;;;20.03;14.43;;;9.20;99.90;;;;;;5033812;28;20224;-81
2022/03/27 04:09:46;;;;;;;19.03;13.40;;;9.20;99.90;;;;;;5034869;28;20204;-81
2022/03/27 04:12:21;;;;;;;24.90;18.63;;;9.10;99.90;;;;;;5035218;28;20428;-81
2022/03/27 04:14:54;;;;;;;26.97;15.90;;;9.30;99.90;;;;;;5036742;28;20302;-82
2022/03/27 04:17:23;;;;;;;18.70;14.70;;;9.20;99.90;;;;;;5036676;28;20196;-82
2022/03/27 04:19:50;;;;;;;25.53;15.57;;;9.20;99.90;;;;;;5035531;28;20672;-82
2022/03/27 04:22:21;;;;;;;22.83;14.77;;;9.10;99.90;;;;;;5016303;28;20211;-81
2022/03/27 04:24:48;;;;;;;25.90;15.00;;;9.20;99.90;;;;;;5033182;28;20242;-81
2022/03/27 04:27:32;;;;;;;26.43;15.47;;;9.10;99.90;;;;;;5034681;28;20235;-81
2022/03/27 04:30:00;;;;;;;22.67;15.57;;;9.20;99.90;;;;;;5034580;28;20196;-81
2022/03/27 04:32:34;;;;;;;22.60;15.10;;;9.10;99.90;;;;;;5035773;28;20211;-81
2022/03/27 04:35:06;;;;;;;26.03;15.23;;;9.10;99.90;;;;;;5030656;28;20204;-80
2022/03/27 04:37:40;;;;;;;25.43;15.20;;;8.90;99.90;;;;;;5029851;28;20207;-81
2022/03/27 04:40:13;;;;;;;20.43;15.17;;;9.10;99.90;;;;;;5027594;28;20208;-80
2022/03/27 04:42:57;;;;;;;20.83;15.40;;;8.80;99.90;;;;;;5026050;28;20226;-80
2022/03/27 04:45:25;;;;;;;25.77;15.07;;;8.80;99.90;;;;;;5026241;28;20188;-80
2022/03/27 04:47:55;;;;;;;25.17;15.30;;;8.80;99.90;;;;;;5026753;28;20299;-80
2022/03/27 04:50:29;;;;;;;23.63;16.10;;;8.90;99.90;;;;;;5008786;28;20196;-80
2022/03/27 04:53:02;;;;;;;21.10;15.53;;;8.80;99.90;;;;;;5025873;28;20300;-80
2022/03/27 04:55:37;;;;;;;22.37;15.80;;;8.80;99.90;;;;;;5026318;28;20227;-80
2022/03/27 04:58:08;;;;;;;23.63;16.07;;;9.00;99.90;;;;;;5024275;28;20207;-80
2022/03/27 05:00:36;;;;;;;24.00;16.03;;;8.90;99.90;;;;;;5023550;28;20218;-80
2022/03/27 05:03:03;;;;;;;20.20;15.77;;;8.90;99.90;;;;;;5024475;28;20204;-80
2022/03/27 05:05:34;;;;;;;25.97;16.67;;;8.80;99.90;;;;;;5025820;28;20210;-80
2022/03/27 05:08:01;;;;;;;23.90;16.10;;;8.80;99.90;;;;;;5024796;28;20216;-80
2022/03/27 05:10:34;;;;;;;26.73;16.50;;;8.80;99.90;;;;;;5024164;28;20593;-80
2022/03/27 05:13:01;;;;;;;24.23;15.53;;;8.90;99.90;;;;;;5023423;28;20238;-80
2022/03/27 05:15:35;;;;;;;19.60;15.37;;;8.80;99.90;;;;;;5023075;28;20196;-80
2022/03/27 05:18:06;;;;;;;22.60;16.03;;;8.60;99.90;;;;;;5023119;28;20202;-79
2022/03/27 05:20:32;;;;;;;21.67;16.60;;;8.70;99.90;;;;;;5022839;28;20200;-80
2022/03/27 05:23:00;;;;;;;23.63;16.83;;;8.60;99.90;;;;;;5023124;28;20279;-80
2022/03/27 05:25:27;;;;;;;22.83;16.73;;;8.50;99.90;;;;;;5024010;28;20200;-81
2022/03/27 05:27:56;;;;;;;24.83;16.97;;;8.60;99.90;;;;;;5024325;28;20574;-80
2022/03/27 05:30:25;;;;;;;23.93;17.97;;;8.60;99.90;;;;;;5008396;28;20268;-80
2022/03/27 05:32:59;;;;;;;23.70;17.77;;;8.40;99.90;;;;;;5029356;28;20204;-80
2022/03/27 05:35:29;;;;;;;22.73;17.20;;;8.60;99.90;;;;;;5032682;28;20197;-80
2022/03/27 05:38:02;;;;;;;23.00;17.60;;;8.50;99.90;;;;;;5032179;28;20628;-79
2022/03/27 05:40:32;;;;;;;21.67;17.93;;;8.50;99.90;;;;;;5030614;28;20263;-79
2022/03/27 05:43:06;;;;;;;25.83;17.70;;;8.50;99.90;;;;;;5030137;28;20192;-79
2022/03/27 05:45:45;;;;;;;22.30;16.23;;;8.50;99.90;;;;;;5027017;28;20210;-79
2022/03/27 05:48:18;;;;;;;28.00;19.73;;;8.50;99.90;;;;;;5025334;28;20219;-80
2022/03/27 05:50:48;;;;;;;32.57;22.03;;;8.60;99.90;;;;;;5025684;28;20287;-80
2022/03/27 05:53:21;;;;;;;37.00;23.17;;;8.50;99.90;;;;;;5024524;28;20236;-78
2022/03/27 05:55:50;;;;;;;34.07;21.93;;;8.50;99.90;;;;;;5022963;28;20192;-80
2022/03/27 05:58:17;;;;;;;35.10;22.90;;;8.70;99.90;;;;;;5022636;28;20211;-78
2022/03/27 06:00:44;;;;;;;34.10;23.03;;;8.60;99.90;;;;;;5026058;28;20433;-78
2022/03/27 06:03:19;;;;;;;34.53;22.70;;;8.70;99.90;;;;;;5026290;28;20429;-78
2022/03/27 06:05:49;;;;;;;39.10;24.03;;;8.80;99.90;;;;;;5010109;28;20199;-79
2022/03/27 06:08:17;;;;;;;39.50;24.87;;;8.80;99.90;;;;;;5027551;28;20222;-79
2022/03/27 06:10:45;;;;;;;41.97;26.60;;;8.90;99.90;;;;;;5029389;28;20750;-79
2022/03/27 06:13:16;;;;;;;41.10;27.90;;;8.80;99.90;;;;;;5028991;28;20223;-78
2022/03/27 06:15:51;;;;;;;45.23;28.20;;;8.70;99.90;;;;;;5023579;28;20557;-80
2022/03/27 06:18:20;;;;;;;48.50;29.03;;;8.90;99.90;;;;;;5020863;28;20210;-78
2022/03/27 06:20:47;;;;;;;51.83;29.70;;;8.70;99.90;;;;;;5003074;28;20351;-80
2022/03/27 06:23:17;;;;;;;49.30;30.23;;;8.80;99.90;;;;;;5020101;28;20207;-80
2022/03/27 06:25:48;;;;;;;50.43;28.77;;;8.90;99.90;;;;;;5024267;28;20571;-80
2022/03/27 06:28:16;;;;;;;43.93;28.27;;;8.90;99.90;;;;;;5020154;28;20253;-80
2022/03/27 06:30:42;;;;;;;43.97;28.10;;;8.80;99.90;;;;;;5020514;28;20275;-80
2022/03/27 06:33:14;;;;;;;43.27;28.00;;;8.70;99.90;;;;;;5004574;28;20207;-80
2022/03/27 06:35:44;;;;;;;47.97;29.03;;;8.90;99.90;;;;;;5020709;28;20727;-80
2022/03/27 06:38:13;;;;;;;49.53;29.77;;;8.80;99.90;;;;;;5018949;28;20211;-81
2022/03/27 06:40:41;;;;;;;47.97;29.47;;;8.80;99.90;;;;;;5004238;28;20204;-79
2022/03/27 06:43:13;;;;;;;48.33;30.40;;;8.90;99.90;;;;;;5001319;28;20208;-80
2022/03/27 06:45:41;;;;;;;53.87;31.20;;;9.00;99.90;;;;;;5020617;28;20290;-80
2022/03/27 06:48:08;;;;;;;57.70;39.42;;;9.20;99.90;;;;;;5018337;28;20459;-80
2022/03/27 06:50:38;;;;;;;49.87;32.50;;;9.40;99.90;;;;;;5020021;28;20207;-80
2022/03/27 06:53:07;;;;;;;48.40;31.37;;;9.30;99.90;;;;;;5018896;28;20242;-80
2022/03/27 06:55:34;;;;;;;46.50;30.27;;;9.60;99.90;;;;;;5020073;28;20271;-79
2022/03/27 06:58:01;;;;;;;51.67;31.87;;;9.50;99.90;;;;;;5001716;28;20200;-79
2022/03/27 07:03:13;;;;;;;53.23;31.77;;;9.50;99.90;;;;;;5018014;28;20199;-80
2022/03/27 07:05:45;;;;;;;56.10;33.63;;;9.40;99.90;;;;;;5016850;28;20206;-80
2022/03/27 07:08:16;;;;;;;54.33;33.93;;;9.30;99.90;;;;;;5001946;28;20667;-81
2022/03/27 07:10:46;;;;;;;56.45;39.80;;;9.40;99.90;;;;;;5022355;28;20428;-79
2022/03/27 07:13:15;;;;;;;59.53;35.37;;;9.60;99.90;;;;;;5019487;28;20234;-78
2022/03/27 07:15:43;;;;;;;58.13;35.60;;;9.60;99.90;;;;;;5020046;28;20217;-80
2022/03/27 07:18:16;;;;;;;61.90;34.83;;;9.80;99.90;;;;;;5020899;28;20262;-81
2022/03/27 07:20:45;;;;;;;59.30;33.77;;;9.70;99.90;;;;;;5020431;28;20296;-80
2022/03/27 07:23:15;;;;;;;56.07;33.13;;;9.40;99.90;;;;;;5001111;28;20211;-80
2022/03/27 07:25:44;;;;;;;55.93;34.83;;;9.50;99.90;;;;;;5022306;28;20210;-80
2022/03/27 07:28:18;;;;;;;49.43;31.40;;;9.60;99.90;;;;;;5008171;28;20207;-80
2022/03/27 07:36:49;;;;;;;53.57;33.43;;;10.20;99.90;;;;;;4993253;28;20220;-81
2022/03/27 07:39:18;;;;;;;56.80;32.80;;;10.10;99.90;;;;;;4994639;28;20593;-81
2022/03/27 07:41:44;;;;;;;55.33;34.20;;;10.00;99.90;;;;;;4993463;28;20208;-83
2022/03/27 07:44:11;;;;;;;56.93;33.63;;;10.20;99.90;;;;;;4994741;28;20208;-82
2022/03/27 07:46:38;;;;;;;53.40;34.03;;;10.50;99.90;;;;;;4994250;28;20204;-82
2022/03/27 07:49:06;;;;;;;57.17;33.43;;;10.00;99.90;;;;;;4994001;28;20220;-83
2022/03/27 07:51:35;;;;;;;59.97;34.70;;;9.80;99.90;;;;;;4994324;28;20634;-84
2022/03/27 07:54:02;;;;;;;60.93;35.23;;;9.90;99.90;;;;;;4994307;28;20228;-83
2022/03/27 07:56:31;;;;;;;60.07;34.93;;;10.20;99.90;;;;;;4994458;28;20201;-83
2022/03/27 07:58:58;;;;;;;59.80;34.97;;;10.00;99.90;;;;;;4994381;28;20212;-82
2022/03/27 08:01:26;;;;;;;60.23;36.53;;;9.90;99.90;;;;;;4994832;28;20292;-82
2022/03/27 08:03:56;;;;;;;57.43;34.90;;;9.80;99.90;;;;;;4996432;28;20539;-80
2022/03/27 08:06:23;;;;;;;59.63;34.63;;;10.00;99.90;;;;;;4995441;28;20201;-81
2022/03/27 08:08:52;;;;;;;60.83;35.47;;;9.90;99.90;;;;;;4997804;28;20573;-81
2022/03/27 08:11:19;;;;;;;62.03;38.07;;;10.10;99.90;;;;;;4994832;28;20685;-80
2022/03/27 08:13:47;;;;;;;60.83;35.93;;;10.10;99.90;;;;;;4996070;28;20189;-82
2022/03/27 08:16:14;;;;;;;62.80;37.27;;;10.20;99.90;;;;;;4996773;28;20221;-81
2022/03/27 08:18:43;;;;;;;62.23;36.03;;;10.20;99.90;;;;;;4996142;28;20226;-81
2022/03/27 08:21:10;;;;;;;68.03;39.00;;;10.40;99.90;;;;;;4993895;28;20220;-81
2022/03/27 08:23:37;;;;;;;65.60;39.53;;;10.70;99.90;;;;;;4993986;28;20294;-81
2022/03/27 08:28:50;;;;;;;66.77;38.37;;;10.60;99.90;;;;;;4993916;28;20308;-81
2022/03/27 08:31:17;;;;;;;70.47;40.27;;;10.70;99.90;;;;;;4994045;28;20204;-83
2022/03/27 08:33:44;;;;;;;68.73;38.67;;;11.00;99.90;;;;;;4994280;28;20200;-83
2022/03/27 08:36:11;;;;;;;70.10;40.63;;;11.00;99.90;;;;;;4993395;28;20258;-80
2022/03/27 08:38:38;;;;;;;103.23;43.33;;;10.80;99.90;;;;;;4996347;28;20197;-81
2022/03/27 08:41:05;;;;;;;165.50;47.97;;;10.60;99.90;;;;;;4995775;28;20209;-79
2022/03/27 08:43:34;;;;;;;66.73;39.80;;;10.50;99.90;;;;;;4994255;28;20208;-79
2022/03/27 08:46:02;;;;;;;71.10;39.17;;;10.50;99.90;;;;;;4994266;28;20270;-79
2022/03/27 08:48:33;;;;;;;72.97;41.03;;;10.60;99.90;;;;;;4993834;28;20267;-78
2022/03/27 08:51:08;;;;;;;76.47;42.73;;;10.50;99.90;;;;;;4994154;28;20235;-78
2022/03/27 08:53:43;;;;;;;72.67;41.97;;;10.70;99.90;;;;;;4994455;28;20211;-79
2022/03/27 08:56:11;;;;;;;69.53;40.67;;;10.50;99.90;;;;;;4994201;28;20210;-79
2022/03/27 08:58:40;;;;;;;78.50;39.63;;;10.80;99.90;;;;;;4994577;28;20232;-79
2022/03/27 09:01:10;;;;;;;61.73;40.03;;;11.10;99.90;;;;;;4993798;28;20555;-79
2022/03/27 09:03:37;;;;;;;66.90;40.40;;;11.10;99.90;;;;;;4993495;28;20235;-79
2022/03/27 09:06:06;;;;;;;64.67;37.63;;;10.80;99.90;;;;;;4995556;28;20222;-79
2022/03/27 09:08:34;;;;;;;63.80;44.13;;;10.80;99.90;;;;;;4996802;28;20507;-78
2022/03/27 09:11:03;;;;;;;54.77;36.20;;;10.70;99.90;;;;;;4997434;28;20656;-77
2022/03/27 09:13:31;;;;;;;58.33;36.00;;;10.80;99.90;;;;;;4997620;28;20216;-79
2022/03/27 09:16:01;;;;;;;53.87;35.07;;;10.60;99.90;;;;;;4997596;28;20216;-84
2022/03/27 09:18:43;;;;;;;54.57;33.23;;;10.50;99.90;;;;;;4997205;28;20668;-78
2022/03/27 09:21:10;;;;;;;62.97;34.03;;;11.00;99.90;;;;;;4997203;28;20652;-80
2022/03/27 09:23:37;;;;;;;54.93;33.17;;;11.30;99.90;;;;;;4997235;28;20204;-79
2022/03/27 09:26:06;;;;;;;54.07;33.20;;;11.20;99.90;;;;;;4997553;28;20208;-78
2022/03/27 09:28:34;;;;;;;53.77;32.50;;;11.40;99.90;;;;;;4997236;28;20204;-77
2022/03/27 09:31:03;;;;;;;53.87;32.47;;;11.00;99.90;;;;;;4997122;28;20205;-77
2022/03/27 09:33:46;;;;;;;50.00;32.57;;;11.00;99.90;;;;;;4996897;28;20204;-79
2022/03/27 09:36:14;;;;;;;52.00;30.57;;;11.00;99.90;;;;;;4996773;28;20259;-79
2022/03/27 09:38:40;;;;;;;49.90;31.87;;;10.70;99.90;;;;;;4996953;28;20652;-77
2022/03/27 09:41:28;;;;;;;56.73;31.97;;;10.90;99.90;;;;;;4996768;28;20209;-78
2022/03/27 09:44:01;;;;;;;67.23;33.37;;;10.80;99.90;;;;;;4996757;28;20694;-78
2022/03/27 09:46:28;;;;;;;56.87;32.43;;;10.50;99.90;;;;;;4996556;28;20247;-78
2022/03/27 09:48:59;;;;;;;62.63;35.13;;;10.70;99.90;;;;;;4996990;28;20336;-78
2022/03/27 09:51:26;;;;;;;63.80;35.37;;;10.70;99.90;;;;;;4996785;28;20208;-78
2022/03/27 09:53:58;;;;;;;66.63;36.60;;;10.60;99.90;;;;;;4996791;28;20204;-80
2022/03/27 09:56:30;;;;;;;62.10;33.83;;;10.60;99.90;;;;;;4996301;28;20216;-79
2022/03/27 09:58:57;;;;;;;59.23;35.07;;;10.60;99.90;;;;;;4996761;28;20224;-79
2022/03/27 10:01:25;;;;;;;63.73;35.87;;;10.80;99.90;;;;;;4996277;28;20216;-79
2022/03/27 10:04:04;;;;;;;63.80;37.10;;;10.70;99.90;;;;;;4996649;28;20783;-80
2022/03/27 10:06:33;;;;;;;67.13;36.60;;;10.70;99.90;;;;;;4996135;28;20197;-77
2022/03/27 10:09:01;;;;;;;67.67;37.00;;;10.70;99.90;;;;;;4996205;28;20192;-79
2022/03/27 10:11:29;;;;;;;67.17;37.80;;;10.70;99.90;;;;;;4996197;28;20292;-80
2022/03/27 10:13:56;;;;;;;60.13;36.20;;;10.70;99.90;;;;;;4995844;28;20565;-78
2022/03/27 10:16:28;;;;;;;63.50;36.17;;;10.80;99.90;;;;;;4996104;28;20224;-82
2022/03/27 10:18:58;;;;;;;67.07;37.03;;;11.10;99.90;;;;;;4996708;28;20215;-83
2022/03/27 10:21:27;;;;;;;93.53;38.20;;;11.20;99.90;;;;;;4996882;28;20203;-81
2022/03/27 10:24:09;;;;;;;60.77;34.97;;;10.90;99.90;;;;;;4996679;28;20224;-81
2022/03/27 10:26:38;;;;;;;58.43;33.57;;;11.00;99.90;;;;;;4997534;28;20197;-83
2022/03/27 10:29:08;;;;;;;56.63;33.87;;;11.40;99.90;;;;;;4997777;28;20219;-86
2022/03/27 10:31:35;;;;;;;95.73;38.87;;;11.40;99.90;;;;;;4984554;28;20622;-79
2022/03/27 10:34:03;;;;;;;62.90;35.27;;;11.20;99.90;;;;;;4992563;28;20209;-83
2022/03/27 10:36:43;;;;;;;65.23;37.20;;;11.10;99.90;;;;;;4993178;28;20233;-82
2022/03/27 10:39:16;;;;;;;64.27;36.30;;;11.30;99.90;;;;;;4993835;28;20200;-85
2022/03/27 10:41:59;;;;;;;75.47;35.67;;;11.30;99.90;;;;;;4996119;28;20205;-80
2022/03/27 10:44:34;;;;;;;66.50;36.27;;;11.40;99.90;;;;;;4992925;28;20212;-83
2022/03/27 10:47:18;;;;;;;60.03;34.80;;;11.30;99.90;;;;;;4996576;28;20207;-83
2022/03/27 10:50:19;;;;;;;60.07;34.17;;;11.30;99.90;;;;;;4996894;28;20208;-84
2022/03/27 10:53:13;;;;;;;67.50;35.13;;;11.40;99.90;;;;;;4990176;28;20212;-83
2022/03/27 10:55:43;;;;;;;64.17;34.73;;;11.50;99.90;;;;;;4987483;28;20228;-85
2022/03/27 10:58:31;;;;;;;65.77;35.17;;;11.50;99.90;;;;;;4986197;28;20645;-83
2022/03/27 11:00:58;;;;;;;66.80;35.47;;;11.20;99.90;;;;;;4985200;28;20208;-82
2022/03/27 11:03:51;;;;;;;66.03;34.93;;;11.10;99.90;;;;;;4987817;28;20297;-84
2022/03/27 11:06:28;;;;;;;68.20;35.50;;;11.30;99.90;;;;;;4985753;28;20212;-88
2022/03/27 11:09:03;;;;;;;72.60;46.03;;;11.60;99.90;;;;;;4986603;28;20512;-85
2022/03/27 11:12:06;;;;;;;63.77;37.83;;;11.90;99.90;;;;;;4996358;28;20221;-85
2022/03/27 11:15:02;;;;;;;63.87;36.10;;;11.60;99.90;;;;;;4989178;28;20205;-80
2022/03/27 11:17:41;;;;;;;55.87;33.20;;;11.60;99.90;;;;;;5004526;28;20287;-86
2022/03/27 11:20:31;;;;;;;60.37;33.37;;;11.60;99.90;;;;;;5004632;28;20584;-84
2022/03/27 11:22:59;;;;;;;55.63;32.67;;;11.30;99.90;;;;;;5004090;28;20247;-82
2022/03/27 11:25:33;;;;;;;56.47;33.20;;;11.30;99.90;;;;;;5003371;28;20214;-83
2022/03/27 11:28:12;;;;;;;56.30;33.87;;;11.20;99.90;;;;;;5002526;28;20204;-85
2022/03/27 11:31:00;;;;;;;57.20;32.00;;;11.40;99.90;;;;;;4998492;28;20204;-85
2022/03/27 11:33:29;;;;;;;53.63;32.90;;;11.50;99.90;;;;;;4998538;28;20229;-85
2022/03/27 11:36:25;;;;;;;54.53;31.83;;;11.40;99.90;;;;;;5001576;28;20259;-85
2022/03/27 11:39:08;;;;;;;54.60;32.30;;;11.30;99.90;;;;;;5004473;28;20193;-91
2022/03/27 11:41:42;;;;;;;57.10;33.70;;;11.20;99.90;;;;;;5004605;28;20204;-87
2022/03/27 11:47:12;;;;;;;56.67;34.27;;;11.30;99.90;;;;;;5001477;28;20215;-87
2022/03/27 11:49:41;;;;;;;56.13;33.93;;;11.50;99.90;;;;;;4995378;28;20286;-83
2022/03/27 11:52:11;;;;;;;57.00;33.67;;;11.80;99.90;;;;;;4995976;28;20641;-85
2022/03/27 11:54:40;;;;;;;39.10;26.40;;;11.70;99.90;;;;;;4995011;28;20208;-85
2022/03/27 11:57:09;;;;;;;45.13;28.00;;;11.50;99.90;;;;;;4982006;28;20208;-85
2022/03/27 11:59:46;;;;;;;47.13;29.93;;;11.60;99.90;;;;;;4976341;28;20211;-86
2022/03/27 12:02:15;;;;;;;49.23;30.83;;;11.70;99.90;;;;;;4977895;28;20237;-87
2022/03/27 12:04:53;;;;;;;49.93;31.57;;;12.00;99.90;;;;;;4980436;28;20205;-87
2022/03/27 12:07:22;;;;;;;47.27;30.80;;;12.20;99.90;;;;;;4979370;28;20237;-88
2022/03/27 12:10:01;;;;;;;46.33;32.37;;;12.30;99.90;;;;;;4980133;28;20657;-83
2022/03/27 12:12:32;;;;;;;43.23;30.00;;;12.80;99.90;;;;;;4978588;28;20206;-86
2022/03/27 12:15:04;;;;;;;36.47;28.20;;;13.00;99.90;;;;;;4975821;28;20269;-86
2022/03/27 12:17:44;;;;;;;42.27;30.23;;;12.70;99.90;;;;;;4976530;28;20201;-83
2022/03/27 12:20:14;;;;;;;42.10;28.83;;;12.80;99.90;;;;;;4979682;28;20202;-83
2022/03/27 12:22:43;;;;;;;36.57;25.90;;;12.30;99.90;;;;;;4999715;28;20237;-83
2022/03/27 12:25:20;;;;;;;36.57;27.20;;;12.50;99.90;;;;;;4996081;28;20197;-86
2022/03/27 12:30:47;;;;;;;42.80;29.10;;;12.80;99.90;;;;;;4998144;28;20297;-83
2022/03/27 12:33:14;;;;;;;41.20;29.50;;;12.80;99.90;;;;;;4999321;28;20529;-84
2022/03/27 12:35:41;;;;;;;46.43;31.90;;;12.80;99.90;;;;;;4999269;28;20231;-84
2022/03/27 12:38:10;;;;;;;45.77;30.93;;;12.50;99.90;;;;;;4999070;28;20205;-82
2022/03/27 12:40:47;;;;;;;49.70;34.67;;;12.40;99.90;;;;;;4995149;28;20190;-84
2022/03/27 12:43:16;;;;;;;47.77;33.57;;;12.50;99.90;;;;;;4998418;28;20207;-85
2022/03/27 12:45:44;;;;;;;51.63;34.43;;;13.00;99.90;;;;;;4996023;28;20207;-84
2022/03/27 12:48:18;;;;;;;51.40;35.77;;;13.40;99.90;;;;;;4996248;28;20220;-86
2022/03/27 12:50:50;;;;;;;45.43;32.80;;;13.30;99.90;;;;;;4995606;28;20206;-89
2022/03/27 12:53:32;;;;;;;40.47;30.60;;;13.00;99.90;;;;;;4998112;28;20200;-83
2022/03/27 12:56:09;;;;;;;36.80;27.80;;;13.10;99.90;;;;;;4999097;28;20667;-86
2022/03/27 12:58:39;;;;;;;42.67;30.43;;;12.70;99.90;;;;;;4994624;28;20212;-84
2022/03/27 13:01:07;;;;;;;41.90;31.13;;;13.00;99.90;;;;;;4993917;28;20591;-84
2022/03/27 13:03:35;;;;;;;39.30;29.87;;;13.10;99.90;;;;;;4996025;28;20203;-79
2022/03/27 13:06:03;;;;;;;42.77;31.07;;;13.60;99.90;;;;;;4995855;28;20218;-78
2022/03/27 13:08:32;;;;;;;41.63;31.30;;;13.70;99.90;;;;;;4996960;28;20203;-79
2022/03/27 13:11:01;;;;;;;46.07;32.50;;;13.70;99.90;;;;;;4996265;28;20211;-79